Time;durP1;ratioP1;P1;durP2;ratioP2;P2;SDS_P1;SDS_P2;PMS_P1;PMS_P2;Temp;Humidity;BMP_temperature;BMP_pressure;BME280_temperature;BME280_humidity;BME280_pressure;Samples;Min_cycle;Max_cycle;Signal;HPM_P1;HPM_P2
2023/08/22 00:00:40;;;;;;;4.77;3.57;;;19.60;99.90;;;;;;5072911;28;20440;-74
2023/08/22 00:03:07;;;;;;;4.70;2.90;;;19.60;99.90;;;;;;5075366;28;20527;-72
2023/08/22 00:05:34;;;;;;;4.17;3.30;;;19.60;99.90;;;;;;5075833;28;20439;-71
2023/08/22 00:08:04;;;;;;;8.00;3.23;;;19.60;99.90;;;;;;5073810;28;20443;-70
2023/08/22 00:10:31;;;;;;;10.23;5.93;;;19.60;99.90;;;;;;5075146;28;20496;-71
2023/08/22 00:12:59;;;;;;;6.67;3.30;;;19.60;99.90;;;;;;5075147;28;20564;-73
2023/08/22 00:15:26;;;;;;;6.83;3.93;;;19.50;99.90;;;;;;5075139;28;20938;-73
2023/08/22 00:17:53;;;;;;;5.10;3.27;;;19.40;99.90;;;;;;5074415;28;20516;-70
2023/08/22 00:20:20;;;;;;;6.43;2.93;;;19.40;99.90;;;;;;5072979;28;20460;-70
2023/08/22 00:22:47;;;;;;;4.77;3.60;;;19.30;99.90;;;;;;5082834;28;20447;-70
2023/08/22 00:25:15;;;;;;;5.50;3.10;;;19.30;99.90;;;;;;5071605;28;20550;-71
2023/08/22 00:27:42;;;;;;;5.73;2.60;;;19.30;99.90;;;;;;5070560;28;20437;-73
2023/08/22 00:30:09;;;;;;;5.97;3.33;;;19.30;99.90;;;;;;5074680;28;20524;-72
2023/08/22 00:32:36;;;;;;;6.37;3.87;;;19.40;99.90;;;;;;5074477;28;20485;-73
2023/08/22 00:35:03;;;;;;;5.07;2.50;;;19.30;99.90;;;;;;5074787;28;20492;-71
2023/08/22 00:37:30;;;;;;;5.57;3.07;;;19.30;99.90;;;;;;5073425;28;20465;-72
2023/08/22 00:39:57;;;;;;;4.30;3.20;;;19.40;99.90;;;;;;5074635;28;20429;-73
2023/08/22 00:42:25;;;;;;;4.60;2.77;;;19.40;99.90;;;;;;5074960;28;20440;-71
2023/08/22 00:44:54;;;;;;;8.00;3.23;;;19.40;99.90;;;;;;5075203;28;20541;-73
2023/08/22 00:47:22;;;;;;;4.17;2.80;;;19.40;99.90;;;;;;5070465;28;21003;-71
2023/08/22 00:49:49;;;;;;;7.37;3.50;;;19.30;99.90;;;;;;5068269;28;20478;-73
2023/08/22 00:52:17;;;;;;;5.50;3.00;;;19.30;99.90;;;;;;5066169;28;20445;-72
2023/08/22 00:54:46;;;;;;;7.40;3.30;;;19.30;99.90;;;;;;5072439;28;20815;-71
2023/08/22 00:57:14;;;;;;;12.13;3.77;;;19.30;99.90;;;;;;5067962;28;20865;-71
2023/08/22 00:59:43;;;;;;;10.23;3.70;;;19.30;99.90;;;;;;5071441;28;20444;-72
2023/08/22 01:02:10;;;;;;;8.33;3.47;;;19.30;99.90;;;;;;5067643;28;20443;-70
2023/08/22 01:04:37;;;;;;;6.33;3.50;;;19.30;99.90;;;;;;5066365;28;20959;-71
2023/08/22 01:07:13;;;;;;;7.27;3.10;;;19.40;99.90;;;;;;5068899;28;20521;-74
2023/08/22 01:09:48;;;;;;;6.07;3.47;;;19.30;99.90;;;;;;5066955;28;20448;-71
2023/08/22 01:12:21;;;;;;;7.70;2.80;;;19.40;99.90;;;;;;5071858;28;20440;-72
2023/08/22 01:14:56;;;;;;;6.43;3.03;;;19.40;99.90;;;;;;5078739;28;20494;-70
2023/08/22 01:17:24;;;;;;;3.53;2.67;;;19.40;99.90;;;;;;5069607;28;20520;-74
2023/08/22 01:19:57;;;;;;;4.63;3.53;;;19.30;99.90;;;;;;5073267;28;20447;-72
2023/08/22 01:22:26;;;;;;;3.80;2.70;;;19.40;99.90;;;;;;5066620;28;20465;-71
2023/08/22 01:24:53;;;;;;;4.87;3.40;;;19.30;99.90;;;;;;5071256;28;20532;-69
2023/08/22 01:27:24;;;;;;;6.07;3.50;;;19.40;99.90;;;;;;5069052;28;20476;-72
2023/08/22 01:29:59;;;;;;;9.57;3.80;;;19.40;99.90;;;;;;5063623;28;20526;-70
2023/08/22 01:32:30;;;;;;;7.40;3.13;;;19.50;99.90;;;;;;5061893;28;20929;-73
2023/08/22 01:35:06;;;;;;;5.63;3.57;;;19.50;99.90;;;;;;5065828;28;20514;-71
2023/08/22 01:37:35;;;;;;;4.97;3.10;;;19.50;99.90;;;;;;5073762;28;20448;-73
2023/08/22 01:40:06;;;;;;;5.87;2.93;;;19.50;99.90;;;;;;5067957;28;20445;-71
2023/08/22 01:42:32;;;;;;;7.30;3.30;;;19.60;99.90;;;;;;5065522;28;20792;-73
2023/08/22 01:45:00;;;;;;;3.27;2.60;;;19.60;99.90;;;;;;5073572;28;20470;-71
2023/08/22 01:47:27;;;;;;;7.60;2.90;;;19.60;99.90;;;;;;5072557;28;20438;-71
2023/08/22 01:49:54;;;;;;;8.70;3.20;;;19.60;99.90;;;;;;5072976;28;20520;-72
2023/08/22 01:52:21;;;;;;;3.50;3.20;;;19.70;99.90;;;;;;5072795;28;20942;-74
2023/08/22 01:54:50;;;;;;;3.93;3.30;;;19.60;99.90;;;;;;5073251;28;20461;-71
2023/08/22 01:57:17;;;;;;;5.30;3.80;;;19.60;99.90;;;;;;5072264;28;20943;-70
2023/08/22 01:59:44;;;;;;;6.03;3.33;;;19.60;99.90;;;;;;5072747;28;20913;-72
2023/08/22 02:02:11;;;;;;;4.63;2.77;;;19.40;99.90;;;;;;5075426;28;20453;-73
2023/08/22 02:04:38;;;;;;;7.87;3.47;;;19.40;99.90;;;;;;5076465;28;20457;-72
2023/08/22 02:07:05;;;;;;;4.63;3.40;;;19.30;99.90;;;;;;5072190;28;20442;-70
2023/08/22 02:09:32;;;;;;;5.70;2.70;;;19.20;99.90;;;;;;5073181;28;20532;-69
2023/08/22 02:12:00;;;;;;;5.00;3.50;;;19.10;99.90;;;;;;5073891;28;20481;-71
2023/08/22 02:14:28;;;;;;;7.53;3.30;;;19.10;99.90;;;;;;5078777;28;20515;-75
2023/08/22 02:16:55;;;;;;;3.40;2.97;;;19.10;99.90;;;;;;5068520;28;20819;-69
2023/08/22 02:19:22;;;;;;;4.57;3.43;;;19.10;99.90;;;;;;5069292;28;20883;-73
2023/08/22 02:21:49;;;;;;;4.37;3.27;;;19.00;99.90;;;;;;5064795;28;20454;-73
2023/08/22 02:24:16;;;;;;;9.87;3.13;;;19.00;99.90;;;;;;5072169;28;20457;-71
2023/08/22 02:26:43;;;;;;;6.97;3.27;;;19.00;99.90;;;;;;5068236;28;20447;-70
2023/08/22 02:29:12;;;;;;;5.13;3.20;;;19.00;99.90;;;;;;5077948;28;20449;-73
2023/08/22 02:31:38;;;;;;;5.37;3.43;;;19.00;99.90;;;;;;5072108;28;20438;-74
2023/08/22 02:34:06;;;;;;;4.50;3.23;;;18.90;99.90;;;;;;5071753;28;20488;-73
2023/08/22 02:36:33;;;;;;;4.97;2.83;;;18.90;99.90;;;;;;5067765;28;20526;-71
2023/08/22 02:39:00;;;;;;;4.63;2.87;;;19.00;99.90;;;;;;5072803;28;20469;-70
2023/08/22 02:41:27;;;;;;;4.63;3.23;;;18.90;99.90;;;;;;5071161;28;20441;-70
2023/08/22 02:43:54;;;;;;;5.67;3.83;;;18.90;99.90;;;;;;5071775;28;20465;-71
2023/08/22 02:46:22;;;;;;;12.10;3.70;;;18.90;99.90;;;;;;5072010;28;20447;-70
2023/08/22 02:48:49;;;;;;;5.03;3.40;;;18.90;99.90;;;;;;5070577;28;20506;-71
2023/08/22 02:51:16;;;;;;;3.77;2.77;;;18.90;99.90;;;;;;5071650;28;20489;-72
2023/08/22 02:53:43;;;;;;;4.80;3.20;;;19.00;99.90;;;;;;5071144;28;20589;-71
2023/08/22 02:56:12;;;;;;;6.27;3.20;;;19.00;99.90;;;;;;5071180;28;20433;-71
2023/08/22 02:58:39;;;;;;;5.47;4.00;;;19.00;99.90;;;;;;5072509;28;20439;-71
2023/08/22 03:01:07;;;;;;;5.23;3.10;;;18.90;99.90;;;;;;5072128;28;20453;-72
2023/08/22 03:03:36;;;;;;;2.97;2.43;;;19.00;99.90;;;;;;5072668;28;20472;-70
2023/08/22 03:06:03;;;;;;;15.33;3.90;;;19.00;99.90;;;;;;5069315;28;20544;-71
2023/08/22 03:08:30;;;;;;;4.43;3.50;;;19.00;99.90;;;;;;5062302;28;20443;-69
2023/08/22 03:11:00;;;;;;;6.67;3.40;;;19.00;99.90;;;;;;5068978;28;20473;-71
2023/08/22 03:13:29;;;;;;;5.50;3.30;;;19.00;99.90;;;;;;5073044;28;20496;-70
2023/08/22 03:15:57;;;;;;;6.77;3.70;;;19.00;99.90;;;;;;5065820;28;20483;-72
2023/08/22 03:18:26;;;;;;;5.17;2.80;;;19.00;99.90;;;;;;5073196;28;20465;-73
2023/08/22 03:20:56;;;;;;;5.83;2.87;;;19.00;99.90;;;;;;5071077;28;20510;-72
2023/08/22 03:23:24;;;;;;;4.47;3.37;;;19.00;99.90;;;;;;5072005;28;20459;-71
2023/08/22 03:25:57;;;;;;;12.20;4.20;;;19.00;99.90;;;;;;5072135;28;20445;-73
2023/08/22 03:28:25;;;;;;;5.03;3.27;;;19.00;99.90;;;;;;5069471;28;20444;-71
2023/08/22 03:30:57;;;;;;;8.30;4.07;;;18.90;99.90;;;;;;5066852;28;20438;-72
2023/08/22 03:33:26;;;;;;;5.53;3.93;;;18.90;99.90;;;;;;5075525;28;20519;-72
2023/08/22 03:35:55;;;;;;;5.17;3.77;;;18.90;99.90;;;;;;5069880;28;20466;-70
2023/08/22 03:38:22;;;;;;;5.67;3.57;;;18.90;99.90;;;;;;5068872;28;20524;-72
2023/08/22 03:40:51;;;;;;;7.03;3.57;;;18.90;99.90;;;;;;5071773;28;20444;-70
2023/08/22 03:43:19;;;;;;;5.27;4.00;;;19.00;99.90;;;;;;5076191;28;20511;-70
2023/08/22 03:45:47;;;;;;;4.70;3.17;;;19.00;99.90;;;;;;5076397;28;20445;-72
2023/08/22 03:48:14;;;;;;;5.13;3.80;;;19.10;99.90;;;;;;5073632;28;20448;-72
2023/08/22 03:50:42;;;;;;;5.90;4.10;;;19.10;99.90;;;;;;5076127;28;20467;-72
2023/08/22 03:53:12;;;;;;;5.87;3.40;;;19.20;99.90;;;;;;5074803;28;20447;-70
2023/08/22 03:55:39;;;;;;;5.63;4.00;;;19.10;99.90;;;;;;5076645;28;20445;-70
2023/08/22 03:58:07;;;;;;;6.60;3.43;;;19.20;99.90;;;;;;5079176;28;21043;-73
2023/08/22 04:00:34;;;;;;;5.60;3.67;;;19.20;99.90;;;;;;5075135;28;20449;-72
2023/08/22 04:03:01;;;;;;;5.80;3.77;;;19.10;99.90;;;;;;5074737;28;20882;-72
2023/08/22 04:05:28;;;;;;;9.50;3.93;;;19.10;99.90;;;;;;5074547;28;20441;-73
2023/08/22 04:07:55;;;;;;;12.60;3.90;;;19.20;99.90;;;;;;5073657;28;20440;-73
2023/08/22 04:10:23;;;;;;;5.47;3.60;;;19.10;99.90;;;;;;5073247;28;20605;-74
2023/08/22 04:12:51;;;;;;;9.00;4.07;;;19.10;99.90;;;;;;5074708;28;20525;-68
2023/08/22 04:15:19;;;;;;;7.07;4.00;;;19.00;99.90;;;;;;5074684;28;20563;-70
2023/08/22 04:17:46;;;;;;;5.60;3.30;;;19.00;99.90;;;;;;5077819;28;20463;-71
2023/08/22 04:20:13;;;;;;;5.80;3.60;;;19.00;99.90;;;;;;5072311;28;20445;-71
2023/08/22 04:22:42;;;;;;;3.70;2.87;;;19.00;99.90;;;;;;5074838;28;20445;-69
2023/08/22 04:25:10;;;;;;;7.40;4.00;;;19.00;99.90;;;;;;5074336;28;21031;-71
2023/08/22 04:27:39;;;;;;;5.13;3.53;;;19.00;99.90;;;;;;5074780;28;20476;-71
2023/08/22 04:30:07;;;;;;;4.90;4.07;;;19.00;99.90;;;;;;5074376;28;20484;-70
2023/08/22 04:32:34;;;;;;;8.83;4.20;;;18.90;99.90;;;;;;5075154;28;20499;-70
2023/08/22 04:35:01;;;;;;;14.53;5.30;;;19.00;99.90;;;;;;5072025;28;20572;-70
2023/08/22 04:37:28;;;;;;;9.50;4.50;;;19.00;99.90;;;;;;5065471;28;20452;-73
2023/08/22 04:39:55;;;;;;;7.70;3.67;;;19.00;99.90;;;;;;5069052;28;20993;-71
2023/08/22 04:42:22;;;;;;;5.10;3.33;;;19.00;99.90;;;;;;5069875;28;20464;-72
2023/08/22 04:44:51;;;;;;;4.50;3.93;;;19.00;99.90;;;;;;5074489;28;20465;-73
2023/08/22 04:47:18;;;;;;;6.50;4.30;;;19.10;99.90;;;;;;5073621;28;20876;-70
2023/08/22 04:49:45;;;;;;;11.60;5.17;;;19.10;99.90;;;;;;5073672;28;20481;-70
2023/08/22 04:52:12;;;;;;;7.50;4.67;;;19.10;99.90;;;;;;5074889;28;20760;-72
2023/08/22 04:54:39;;;;;;;6.20;4.17;;;19.10;99.90;;;;;;5074339;28;20500;-70
2023/08/22 04:57:08;;;;;;;5.47;3.63;;;19.20;99.90;;;;;;5074325;28;20449;-70
2023/08/22 04:59:35;;;;;;;6.90;3.93;;;19.30;99.90;;;;;;5073631;28;20464;-72
2023/08/22 05:02:04;;;;;;;6.83;4.37;;;19.30;99.90;;;;;;5074840;28;20789;-71
2023/08/22 05:04:32;;;;;;;6.40;4.13;;;19.30;99.90;;;;;;5074637;28;20483;-71
2023/08/22 05:06:59;;;;;;;7.17;4.20;;;19.30;99.90;;;;;;5074073;28;21005;-70
2023/08/22 05:09:26;;;;;;;8.00;4.27;;;19.30;99.90;;;;;;5074700;28;20441;-70
2023/08/22 05:11:53;;;;;;;4.70;3.97;;;19.30;99.90;;;;;;5071389;28;20861;-71
2023/08/22 05:14:21;;;;;;;4.40;3.60;;;19.30;99.90;;;;;;5060965;28;20985;-70
2023/08/22 05:16:51;;;;;;;5.47;4.00;;;19.30;99.90;;;;;;5072620;28;20531;-69
2023/08/22 05:19:19;;;;;;;12.10;4.70;;;19.30;99.90;;;;;;5076656;28;20503;-69
2023/08/22 05:21:46;;;;;;;7.17;4.53;;;19.40;99.90;;;;;;5067188;28;20445;-73
2023/08/22 05:24:13;;;;;;;6.67;4.20;;;19.40;99.90;;;;;;5072494;28;20546;-72
2023/08/22 05:26:40;;;;;;;7.67;3.80;;;19.40;99.90;;;;;;5073725;28;20819;-69
2023/08/22 05:29:07;;;;;;;7.60;4.43;;;19.50;99.90;;;;;;5073817;28;20488;-70
2023/08/22 05:31:35;;;;;;;4.13;3.40;;;19.50;99.90;;;;;;5073335;28;20463;-70
2023/08/22 05:34:02;;;;;;;5.90;3.60;;;19.40;99.90;;;;;;5070223;28;20566;-72
2023/08/22 05:36:31;;;;;;;4.97;4.10;;;19.40;99.90;;;;;;5073802;28;20441;-70
2023/08/22 05:38:58;;;;;;;7.80;4.87;;;19.40;99.90;;;;;;5074039;28;20491;-69
2023/08/22 05:41:25;;;;;;;7.53;3.80;;;19.40;99.90;;;;;;5080531;28;20944;-70
2023/08/22 05:43:53;;;;;;;7.23;4.00;;;19.40;99.90;;;;;;5064841;28;20484;-71
2023/08/22 05:46:20;;;;;;;8.43;4.37;;;19.50;99.90;;;;;;5060336;28;20460;-72
2023/08/22 05:48:47;;;;;;;7.43;4.03;;;19.60;99.90;;;;;;5066330;28;20544;-70
2023/08/22 05:51:14;;;;;;;6.63;4.93;;;19.70;99.90;;;;;;5071710;28;20485;-71
2023/08/22 05:53:42;;;;;;;6.43;4.57;;;19.80;99.90;;;;;;5073909;28;20552;-69
2023/08/22 05:56:09;;;;;;;6.37;4.17;;;19.80;99.90;;;;;;5072039;28;20446;-70
2023/08/22 05:58:36;;;;;;;11.87;7.80;;;19.80;99.90;;;;;;5069496;28;20931;-71
2023/08/22 06:01:09;;;;;;;7.33;4.87;;;19.90;99.90;;;;;;5071419;28;20442;-71
2023/08/22 06:03:36;;;;;;;6.17;4.17;;;20.00;99.90;;;;;;5072053;28;20466;-71
2023/08/22 06:06:04;;;;;;;5.63;3.33;;;20.10;99.90;;;;;;5069270;28;20449;-71
2023/08/22 06:08:31;;;;;;;6.90;3.70;;;20.20;99.90;;;;;;5069476;28;20443;-69
2023/08/22 06:11:00;;;;;;;11.17;4.30;;;20.30;99.90;;;;;;5070211;28;20494;-69
2023/08/22 06:13:27;;;;;;;7.53;4.47;;;20.30;99.90;;;;;;5067968;28;20464;-71
2023/08/22 06:15:54;;;;;;;6.77;4.83;;;20.40;99.90;;;;;;5069378;28;20487;-72
2023/08/22 06:18:21;;;;;;;7.83;4.30;;;20.40;99.90;;;;;;5070349;28;20540;-71
2023/08/22 06:20:47;;;;;;;7.23;4.87;;;20.30;99.90;;;;;;5071316;28;20443;-70
2023/08/22 06:23:14;;;;;;;5.57;4.20;;;20.50;99.90;;;;;;5072541;28;20477;-70
2023/08/22 06:25:41;;;;;;;7.70;3.90;;;20.50;99.90;;;;;;5065608;28;20451;-71
2023/08/22 06:28:10;;;;;;;10.43;3.73;;;20.70;99.90;;;;;;5069500;28;20446;-71
2023/08/22 06:30:37;;;;;;;7.20;4.60;;;20.80;99.90;;;;;;5070705;28;20527;-69
2023/08/22 06:33:04;;;;;;;6.33;4.53;;;20.90;99.90;;;;;;5072145;28;20547;-70
2023/08/22 06:35:31;;;;;;;8.53;4.40;;;21.00;99.90;;;;;;5072402;28;20487;-71
2023/08/22 06:37:58;;;;;;;7.17;5.50;;;21.10;99.90;;;;;;5072153;28;20469;-72
2023/08/22 06:40:25;;;;;;;11.50;8.07;;;21.30;99.90;;;;;;5069023;28;20920;-70
2023/08/22 06:42:52;;;;;;;13.77;8.60;;;21.50;99.90;;;;;;5068717;28;20476;-73
2023/08/22 06:45:20;;;;;;;10.43;5.40;;;21.60;99.90;;;;;;5065196;28;20437;-71
2023/08/22 06:47:49;;;;;;;9.17;5.07;;;21.50;99.90;;;;;;5067755;28;20544;-71
2023/08/22 06:50:18;;;;;;;10.03;8.30;;;21.80;99.90;;;;;;5071956;28;20922;-71
2023/08/22 06:52:45;;;;;;;6.73;4.23;;;22.20;99.90;;;;;;5070302;28;20556;-72
2023/08/22 06:55:13;;;;;;;8.87;3.23;;;22.80;99.90;;;;;;5072497;28;21063;-72
2023/08/22 06:57:40;;;;;;;12.23;4.10;;;24.40;99.90;;;;;;5064935;28;20453;-71
2023/08/22 07:00:13;;;;;;;8.43;4.23;;;26.20;96.50;;;;;;5069848;28;20534;-71
2023/08/22 07:02:42;;;;;;;5.67;3.93;;;27.90;94.10;;;;;;5070608;28;20441;-73
2023/08/22 07:05:09;;;;;;;7.50;4.57;;;29.20;90.80;;;;;;5069818;28;20544;-76
2023/08/22 07:07:37;;;;;;;6.23;3.93;;;30.40;87.90;;;;;;5075024;28;20519;-74
2023/08/22 07:10:06;;;;;;;4.73;3.83;;;31.40;84.70;;;;;;5072711;28;21839;-73
2023/08/22 07:12:33;;;;;;;5.60;4.00;;;31.70;81.60;;;;;;5078874;28;20451;-74
2023/08/22 07:15:01;;;;;;;4.73;3.23;;;31.60;81.40;;;;;;5072236;28;20635;-74
2023/08/22 07:17:28;;;;;;;9.60;4.80;;;31.80;80.20;;;;;;5072308;28;20441;-76
2023/08/22 07:19:56;;;;;;;6.30;4.40;;;31.90;79.90;;;;;;5068375;28;20499;-76
2023/08/22 07:22:23;;;;;;;8.53;6.17;;;32.30;78.90;;;;;;5071778;28;20532;-74
2023/08/22 07:24:50;;;;;;;5.97;3.97;;;32.60;78.00;;;;;;5071238;28;20469;-75
2023/08/22 07:27:18;;;;;;;7.83;4.70;;;33.20;76.20;;;;;;5071475;28;20476;-73
2023/08/22 07:29:45;;;;;;;4.97;4.03;;;33.40;74.90;;;;;;5071350;28;20475;-74
2023/08/22 07:32:12;;;;;;;5.70;5.00;;;32.70;74.80;;;;;;5074046;28;20536;-75
2023/08/22 07:34:39;;;;;;;5.93;3.90;;;32.20;76.70;;;;;;5073097;28;21026;-74
2023/08/22 07:37:08;;;;;;;4.90;3.97;;;32.20;76.70;;;;;;5070409;28;20453;-74
2023/08/22 07:39:35;;;;;;;6.83;4.53;;;32.70;76.90;;;;;;5070638;28;20454;-76
2023/08/22 07:42:02;;;;;;;10.27;4.93;;;32.50;75.20;;;;;;5071037;28;20512;-75
2023/08/22 07:44:29;;;;;;;8.40;4.50;;;33.00;75.60;;;;;;5071344;28;20460;-74
2023/08/22 07:46:56;;;;;;;4.70;4.10;;;33.00;74.50;;;;;;5069848;28;20880;-74
2023/08/22 07:49:24;;;;;;;9.80;4.37;;;33.00;74.90;;;;;;5070134;28;20503;-73
2023/08/22 07:51:51;;;;;;;6.83;3.87;;;33.20;74.80;;;;;;5071037;28;20484;-75
2023/08/22 07:54:20;;;;;;;9.30;3.70;;;33.30;74.90;;;;;;5071791;28;20855;-75
2023/08/22 07:56:47;;;;;;;10.03;4.93;;;34.00;74.00;;;;;;5069179;28;20453;-76
2023/08/22 07:59:15;;;;;;;6.77;4.00;;;34.40;72.70;;;;;;5069625;28;21578;-76
2023/08/22 08:01:42;;;;;;;7.47;3.37;;;33.70;72.60;;;;;;5067042;28;20859;-74
2023/08/22 08:04:09;;;;;;;6.10;3.53;;;34.40;73.40;;;;;;5066337;28;20587;-75
2023/08/22 08:06:37;;;;;;;5.73;3.37;;;34.60;72.20;;;;;;5074334;28;20512;-77
2023/08/22 08:09:05;;;;;;;5.90;3.57;;;34.50;70.90;;;;;;5073884;28;20488;-74
2023/08/22 08:11:34;;;;;;;6.63;3.47;;;33.90;71.50;;;;;;5075516;28;20437;-77
2023/08/22 08:14:02;;;;;;;6.50;3.30;;;33.10;72.30;;;;;;5072506;28;20475;-74
2023/08/22 08:16:29;;;;;;;5.83;3.37;;;33.40;73.70;;;;;;5075625;28;20481;-74
2023/08/22 08:18:56;;;;;;;8.83;3.73;;;34.00;73.70;;;;;;5071353;28;20474;-75
2023/08/22 08:21:23;;;;;;;5.37;3.33;;;34.80;71.70;;;;;;5073173;28;20532;-75
2023/08/22 08:23:50;;;;;;;5.80;3.53;;;35.30;69.80;;;;;;5072777;28;20544;-74
2023/08/22 08:26:17;;;;;;;5.73;4.00;;;34.80;69.90;;;;;;5070969;28;20445;-72
2023/08/22 08:28:46;;;;;;;5.43;4.23;;;34.80;70.70;;;;;;5072707;28;20449;-74
2023/08/22 08:31:13;;;;;;;5.37;3.47;;;34.70;71.30;;;;;;5074051;28;20445;-74
2023/08/22 08:33:40;;;;;;;5.80;4.00;;;35.30;70.60;;;;;;5072723;28;20461;-72
2023/08/22 08:36:07;;;;;;;8.03;4.57;;;36.10;69.80;;;;;;5071485;28;20569;-77
2023/08/22 08:38:34;;;;;;;9.00;4.43;;;36.90;67.80;;;;;;5069329;28;20485;-75
2023/08/22 08:41:03;;;;;;;8.43;4.40;;;36.90;67.10;;;;;;5073683;28;20444;-73
2023/08/22 08:43:32;;;;;;;13.03;4.23;;;36.70;67.20;;;;;;5069834;28;20556;-74
2023/08/22 08:46:01;;;;;;;7.50;5.30;;;36.50;66.50;;;;;;5066848;28;20452;-73
2023/08/22 08:48:30;;;;;;;8.40;5.37;;;35.70;66.90;;;;;;5077551;28;20518;-75
2023/08/22 08:50:59;;;;;;;5.67;4.50;;;35.30;68.80;;;;;;5067606;28;20453;-74
2023/08/22 08:53:27;;;;;;;5.77;3.80;;;35.50;69.10;;;;;;5071686;28;20534;-75
2023/08/22 08:55:54;;;;;;;8.13;4.00;;;35.60;68.00;;;;;;5073151;28;20465;-75
2023/08/22 08:58:22;;;;;;;7.03;4.97;;;35.90;67.20;;;;;;5072414;28;20536;-74
2023/08/22 09:00:50;;;;;;;6.17;4.30;;;36.10;67.30;;;;;;5069735;28;20448;-75
2023/08/22 09:03:19;;;;;;;5.77;4.63;;;36.70;66.50;;;;;;5069049;28;20493;-74
2023/08/22 09:05:46;;;;;;;6.53;4.10;;;35.80;64.00;;;;;;5069269;28;20524;-76
2023/08/22 09:08:18;;;;;;;8.43;4.87;;;35.40;66.40;;;;;;5072244;28;20488;-76
2023/08/22 09:10:50;;;;;;;6.60;5.10;;;34.70;66.70;;;;;;5068784;28;20907;-74
2023/08/22 09:13:25;;;;;;;8.50;4.47;;;34.80;68.50;;;;;;5070384;28;20892;-73
2023/08/22 09:15:52;;;;;;;7.30;3.70;;;35.10;68.10;;;;;;5069003;28;20465;-75
2023/08/22 09:18:20;;;;;;;4.87;3.80;;;35.10;68.90;;;;;;5073690;28;20792;-74
2023/08/22 09:20:47;;;;;;;6.33;4.40;;;35.20;68.40;;;;;;5068080;28;20825;-75
2023/08/22 09:23:27;;;;;;;6.30;4.50;;;35.30;67.90;;;;;;5074037;28;20520;-76
2023/08/22 09:25:54;;;;;;;4.17;3.77;;;34.90;68.30;;;;;;5065007;28;20516;-76
2023/08/22 09:28:21;;;;;;;6.93;4.03;;;35.00;68.10;;;;;;5063682;28;20437;-75
2023/08/22 09:30:49;;;;;;;6.97;4.23;;;35.00;67.90;;;;;;5066158;28;20476;-73
2023/08/22 09:33:16;;;;;;;9.30;5.17;;;35.10;67.50;;;;;;5070295;28;20507;-76
2023/08/22 09:35:46;;;;;;;8.20;4.80;;;35.60;67.70;;;;;;5069716;28;20564;-74
2023/08/22 09:38:13;;;;;;;6.73;4.30;;;36.00;67.40;;;;;;5062569;28;20524;-73
2023/08/22 09:40:51;;;;;;;6.57;4.33;;;36.20;67.20;;;;;;5068741;28;20447;-73
2023/08/22 09:43:20;;;;;;;6.03;4.13;;;35.80;65.70;;;;;;5074237;28;20469;-75
2023/08/22 09:45:51;;;;;;;7.10;3.70;;;35.90;65.70;;;;;;5071767;28;20446;-75
2023/08/22 09:48:23;;;;;;;5.97;3.37;;;35.70;65.60;;;;;;5071531;28;20523;-75
2023/08/22 09:50:58;;;;;;;7.70;3.40;;;35.10;65.20;;;;;;5071846;28;20457;-72
2023/08/22 09:53:26;;;;;;;5.73;2.83;;;34.70;65.30;;;;;;5075713;28;20838;-73
2023/08/22 09:55:54;;;;;;;6.70;3.67;;;34.50;65.30;;;;;;5078702;28;20478;-75
2023/08/22 09:58:22;;;;;;;3.10;2.50;;;34.40;65.50;;;;;;5079601;28;20457;-72
2023/08/22 10:00:50;;;;;;;4.30;2.50;;;34.10;64.40;;;;;;5083956;28;20461;-72
2023/08/22 10:03:17;;;;;;;6.50;2.30;;;33.50;64.30;;;;;;5072990;28;21038;-73
2023/08/22 10:05:46;;;;;;;3.83;1.87;;;33.10;63.10;;;;;;5073019;28;20631;-75
2023/08/22 10:08:14;;;;;;;5.50;2.07;;;32.60;64.30;;;;;;5073944;28;20438;-75
2023/08/22 10:10:44;;;;;;;3.40;1.97;;;32.00;64.80;;;;;;5072495;28;20523;-75
2023/08/22 10:13:12;;;;;;;2.90;2.27;;;31.60;66.00;;;;;;5070645;28;20504;-77
2023/08/22 10:15:40;;;;;;;4.17;2.53;;;31.30;66.30;;;;;;5068445;28;20501;-76
2023/08/22 10:18:07;;;;;;;5.43;1.90;;;31.20;66.00;;;;;;5066280;28;20441;-76
2023/08/22 10:20:35;;;;;;;3.00;1.87;;;31.40;66.70;;;;;;5070500;28;20516;-73
2023/08/22 10:23:03;;;;;;;5.57;2.67;;;32.10;66.10;;;;;;5067803;28;20442;-73
2023/08/22 10:25:49;;;;;;;2.30;1.83;;;32.50;63.50;;;;;;5071783;28;20445;-75
2023/08/22 10:28:16;;;;;;;2.47;1.53;;;32.60;63.80;;;;;;5076783;28;20884;-73
2023/08/22 10:31:04;;;;;;;3.07;1.83;;;32.80;62.10;;;;;;5071983;28;20441;-75
2023/08/22 10:33:32;;;;;;;2.70;1.73;;;32.60;62.10;;;;;;5067977;28;20799;-75
2023/08/22 10:36:15;;;;;;;2.20;1.67;;;32.40;61.80;;;;;;5064067;28;20474;-75
2023/08/22 10:38:53;;;;;;;5.13;2.20;;;32.60;61.30;;;;;;5062080;28;20449;-76
2023/08/22 10:41:45;;;;;;;3.50;2.20;;;32.70;62.20;;;;;;5064135;28;20449;-76
2023/08/22 10:44:17;;;;;;;3.73;2.07;;;32.30;62.60;;;;;;5066185;28;20601;-74
2023/08/22 10:46:59;;;;;;;5.13;1.90;;;31.90;63.70;;;;;;5072790;28;20940;-76
2023/08/22 10:49:29;;;;;;;2.30;1.90;;;31.40;63.50;;;;;;5081728;28;20451;-74
2023/08/22 10:52:02;;;;;;;2.37;1.90;;;30.80;65.20;;;;;;5074048;28;20479;-73
2023/08/22 10:54:31;;;;;;;8.30;2.57;;;30.60;66.40;;;;;;5071967;28;20838;-75
2023/08/22 10:57:20;;;;;;;2.53;2.13;;;30.50;67.00;;;;;;5064337;28;20477;-77
2023/08/22 11:00:12;;;;;;;7.57;2.70;;;30.60;66.00;;;;;;5069939;28;20473;-75
2023/08/22 11:02:41;;;;;;;24.10;6.30;;;30.60;67.30;;;;;;5060494;28;20454;-73
2023/08/22 11:05:09;;;;;;;6.73;1.83;;;30.50;66.50;;;;;;5062209;28;20472;-75
2023/08/22 11:07:37;;;;;;;3.10;2.10;;;30.20;67.10;;;;;;5063700;28;20849;-73
2023/08/22 11:10:03;;;;;;;4.93;2.40;;;30.00;68.50;;;;;;5062344;28;20524;-74
2023/08/22 11:12:32;;;;;;;2.40;1.60;;;29.80;68.10;;;;;;5069121;28;20915;-75
2023/08/22 11:14:59;;;;;;;5.73;2.23;;;29.40;68.50;;;;;;5066548;28;20859;-72
2023/08/22 11:17:26;;;;;;;3.43;2.20;;;29.20;69.90;;;;;;5069752;28;20563;-73
2023/08/22 11:19:57;;;;;;;3.90;2.40;;;29.20;70.70;;;;;;5070995;28;20524;-73
2023/08/22 11:22:24;;;;;;;1.73;1.50;;;29.40;70.20;;;;;;5065165;28;20456;-72
2023/08/22 11:24:52;;;;;;;2.10;1.60;;;29.60;70.10;;;;;;5067746;28;20510;-73
2023/08/22 11:27:20;;;;;;;3.50;1.90;;;29.70;68.60;;;;;;5071419;28;20528;-73
2023/08/22 11:29:50;;;;;;;7.63;2.07;;;29.70;69.50;;;;;;5072435;28;20480;-74
2023/08/22 11:32:21;;;;;;;3.20;1.90;;;29.90;69.20;;;;;;5079472;28;20441;-75
2023/08/22 11:34:50;;;;;;;5.53;2.10;;;30.00;67.80;;;;;;5079618;28;20546;-73
2023/08/22 11:37:18;;;;;;;5.63;2.70;;;29.80;69.10;;;;;;5066211;28;20494;-75
2023/08/22 11:39:48;;;;;;;2.80;1.87;;;29.70;68.00;;;;;;5071005;28;20449;-76
2023/08/22 11:42:15;;;;;;;4.20;1.63;;;29.60;68.20;;;;;;5065043;28;20455;-74
2023/08/22 11:45:06;;;;;;;1.93;1.33;;;29.70;68.40;;;;;;5077061;28;20471;-73
2023/08/22 11:47:37;;;;;;;2.23;1.30;;;29.70;68.40;;;;;;5071668;28;20584;-76
2023/08/22 11:50:05;;;;;;;2.87;1.63;;;29.50;68.30;;;;;;5075929;28;20532;-75
2023/08/22 11:53:19;;;;;;;2.07;1.50;;;29.30;68.20;;;;;;5076659;28;20807;-75
2023/08/22 11:55:49;;;;;;;2.90;1.67;;;29.40;68.50;;;;;;5069674;28;20482;-73
2023/08/22 11:58:17;;;;;;;3.23;2.07;;;29.40;68.50;;;;;;5073401;28;20444;-74
2023/08/22 12:00:45;;;;;;;4.07;1.50;;;29.40;68.30;;;;;;5075601;28;20445;-75
2023/08/22 12:03:13;;;;;;;3.67;2.27;;;29.30;68.70;;;;;;5075213;28;20990;-78
2023/08/22 12:05:44;;;;;;;4.43;1.60;;;29.20;68.20;;;;;;5075649;28;20548;-73
2023/08/22 12:08:19;;;;;;;2.53;1.97;;;29.20;69.80;;;;;;5075163;28;20517;-74
2023/08/22 12:10:47;;;;;;;9.23;1.73;;;29.40;70.40;;;;;;5075065;28;20470;-73
2023/08/22 12:13:16;;;;;;;58.03;14.73;;;29.30;70.70;;;;;;5075612;28;20503;-75
2023/08/22 12:15:45;;;;;;;3.83;2.17;;;29.20;70.60;;;;;;5075094;28;20524;-74
2023/08/22 12:18:12;;;;;;;3.13;1.70;;;29.20;70.90;;;;;;5075072;28;20441;-75
2023/08/22 12:20:41;;;;;;;2.37;1.60;;;29.10;71.00;;;;;;5074779;28;20460;-74
2023/08/22 12:23:09;;;;;;;4.83;2.93;;;29.00;72.40;;;;;;5072790;28;20528;-75
2023/08/22 12:25:38;;;;;;;5.60;1.80;;;28.90;72.50;;;;;;5075496;28;20984;-73
2023/08/22 12:28:06;;;;;;;3.37;2.40;;;28.90;72.30;;;;;;5082477;28;20519;-73
2023/08/22 12:30:33;;;;;;;3.47;1.70;;;28.80;72.40;;;;;;5074727;28;20547;-76
2023/08/22 12:33:03;;;;;;;3.57;1.90;;;28.80;71.40;;;;;;5075003;28;20857;-75
2023/08/22 12:35:30;;;;;;;2.93;1.60;;;28.90;70.30;;;;;;5082458;28;20456;-74
2023/08/22 12:37:57;;;;;;;3.23;2.30;;;29.00;70.50;;;;;;5073957;28;20516;-73
2023/08/22 12:40:24;;;;;;;1.90;1.67;;;29.00;70.50;;;;;;5085764;28;20624;-73
2023/08/22 12:42:51;;;;;;;4.20;2.10;;;29.00;71.30;;;;;;5074641;28;20890;-74
2023/08/22 12:45:18;;;;;;;2.43;1.50;;;29.00;71.20;;;;;;5074706;28;20502;-73
2023/08/22 12:47:45;;;;;;;2.83;1.43;;;28.90;70.50;;;;;;5073692;28;20499;-72
2023/08/22 12:50:13;;;;;;;5.30;1.90;;;28.50;68.60;;;;;;5068108;28;20492;-74
2023/08/22 12:52:41;;;;;;;2.70;1.77;;;28.40;70.80;;;;;;5077001;28;20437;-76